createdAt,value
2016-11-07T00:00:24.011Z,0
2016-11-07T00:01:37.545Z,0
2016-11-07T00:02:50.551Z,0
2016-11-07T00:04:03.847Z,0
2016-11-07T00:05:17.181Z,0
2016-11-07T00:06:30.232Z,0
2016-11-07T00:07:43.789Z,0
2016-11-07T00:08:56.849Z,0
2016-11-07T00:10:11.003Z,0
2016-11-07T00:13:08.141Z,0
2016-11-07T00:14:21.688Z,0
2016-11-07T00:16:06.376Z,0
2016-11-07T00:17:20.429Z,0
2016-11-07T00:18:33.484Z,0
2016-11-07T00:19:46.730Z,0
2016-11-07T00:20:59.843Z,0
2016-11-07T00:22:12.893Z,0
2016-11-07T00:23:26.221Z,0
2016-11-07T00:24:38.781Z,0
2016-11-07T00:25:52.399Z,0
2016-11-07T00:27:06.063Z,0
2016-11-07T00:28:50.331Z,0
2016-11-07T00:30:03.680Z,0
2016-11-07T00:31:17.303Z,0
2016-11-07T00:32:29.865Z,0
2016-11-07T00:33:43.493Z,0
2016-11-07T00:34:56.562Z,0
2016-11-07T00:36:09.683Z,0
2016-11-07T00:37:23.514Z,0
2016-11-07T00:38:36.055Z,0
2016-11-07T00:39:49.100Z,0
2016-11-07T00:41:02.654Z,0
2016-11-07T00:42:16.308Z,0
2016-11-07T00:43:29.875Z,0
2016-11-07T00:44:43.056Z,0
2016-11-07T00:45:55.545Z,0
2016-11-07T00:47:08.102Z,0
2016-11-07T00:48:21.702Z,0
2016-11-07T00:49:35.271Z,0
2016-11-07T00:50:48.341Z,0
2016-11-07T00:52:01.983Z,0
2016-11-07T00:53:15.484Z,0
2016-11-07T00:54:29.107Z,0
2016-11-07T00:55:42.754Z,0
2016-11-07T00:56:56.581Z,0
2016-11-07T00:58:10.023Z,0
2016-11-07T00:59:23.633Z,0
2016-11-07T01:00:36.671Z,0
2016-11-07T01:01:50.483Z,0
2016-11-07T01:03:03.497Z,0
2016-11-07T01:04:17.363Z,0
2016-11-07T01:05:30.398Z,0
2016-11-07T01:06:43.420Z,0
2016-11-07T01:07:56.989Z,0
2016-11-07T01:09:09.940Z,0
2016-11-07T01:10:22.527Z,0
2016-11-07T01:11:34.513Z,0
2016-11-07T01:12:48.094Z,0
2016-11-07T01:14:01.647Z,0
2016-11-07T01:15:14.939Z,0
2016-11-07T01:16:28.506Z,0
2016-11-07T01:17:42.075Z,0
2016-11-07T01:18:55.564Z,0
2016-11-07T01:20:09.137Z,0
2016-11-07T01:21:22.662Z,0
2016-11-07T01:22:35.751Z,0
2016-11-07T01:23:49.430Z,0
2016-11-07T01:25:02.592Z,0
2016-11-07T01:26:16.110Z,0
2016-11-07T01:27:29.624Z,0
2016-11-07T01:28:42.635Z,0
2016-11-07T01:29:56.198Z,0
2016-11-07T01:31:09.788Z,0
2016-11-07T01:32:23.436Z,0
2016-11-07T01:33:36.542Z,0
2016-11-07T01:34:49.767Z,0
2016-11-07T01:36:03.340Z,0
2016-11-07T01:37:15.608Z,0
2016-11-07T01:38:28.620Z,0
2016-11-07T01:39:42.195Z,0
2016-11-07T01:40:55.784Z,0
2016-11-07T01:42:09.416Z,0
2016-11-07T01:43:22.455Z,0
2016-11-07T01:44:35.745Z,0
2016-11-07T01:45:49.286Z,0
2016-11-07T01:47:02.866Z,0
2016-11-07T01:48:16.474Z,0
2016-11-07T01:49:29.562Z,0
2016-11-07T01:50:42.661Z,0
2016-11-07T01:51:56.588Z,0
2016-11-07T01:53:09.654Z,0
2016-11-07T01:54:23.381Z,0
2016-11-07T01:55:36.414Z,0
2016-11-07T01:56:50.398Z,0
2016-11-07T01:58:03.978Z,0
2016-11-07T01:59:17.270Z,0
2016-11-07T02:00:30.940Z,0
2016-11-07T02:01:43.185Z,0
2016-11-07T02:02:56.092Z,0
2016-11-07T02:04:09.648Z,0
2016-11-07T02:05:23.395Z,0
2016-11-07T02:06:36.518Z,0
2016-11-07T02:07:50.396Z,0
2016-11-07T02:09:03.191Z,0
2016-11-07T02:10:16.196Z,0
2016-11-07T02:11:29.314Z,0
2016-11-07T02:12:43.012Z,0
2016-11-07T02:13:56.638Z,0
2016-11-07T02:15:10.278Z,0
2016-11-07T02:16:23.505Z,0
2016-11-07T02:18:08.198Z,0
2016-11-07T02:19:21.724Z,0
2016-11-07T02:20:35.379Z,0
2016-11-07T02:21:49.043Z,0
2016-11-07T02:23:02.652Z,0
2016-11-07T02:24:16.227Z,0
2016-11-07T02:25:29.864Z,0
2016-11-07T02:26:42.860Z,0
2016-11-07T02:27:56.531Z,0
2016-11-07T02:29:09.649Z,0
2016-11-07T02:30:23.539Z,0
2016-11-07T02:31:37.062Z,0
2016-11-07T02:32:50.625Z,0
2016-11-07T02:34:03.639Z,0
2016-11-07T02:35:16.703Z,0
2016-11-07T02:36:30.269Z,0
2016-11-07T02:37:43.829Z,0
2016-11-07T02:38:57.434Z,0
2016-11-07T02:40:11.049Z,0
2016-11-07T02:41:24.294Z,0
2016-11-07T02:42:37.923Z,0
2016-11-07T02:43:51.501Z,0
2016-11-07T02:45:04.539Z,0
2016-11-07T02:46:18.124Z,0
2016-11-07T02:47:31.173Z,0
2016-11-07T02:48:44.760Z,0
2016-11-07T02:49:58.332Z,0
2016-11-07T02:51:11.938Z,0
2016-11-07T02:52:24.910Z,0
2016-11-07T02:53:38.524Z,0
2016-11-07T02:54:51.137Z,0
2016-11-07T02:56:04.147Z,0
2016-11-07T02:57:17.315Z,0
2016-11-07T02:58:30.987Z,0
2016-11-07T02:59:44.063Z,0
2016-11-07T03:00:57.612Z,0
2016-11-07T03:02:11.248Z,0
2016-11-07T03:03:24.840Z,0
2016-11-07T03:04:38.375Z,0
2016-11-07T03:05:51.992Z,0
2016-11-07T03:07:05.080Z,0
2016-11-07T03:08:18.729Z,0
2016-11-07T03:09:31.739Z,0
2016-11-07T03:10:44.674Z,0
2016-11-07T03:11:57.232Z,0
2016-11-07T03:13:10.294Z,0
2016-11-07T03:14:23.875Z,0
2016-11-07T03:15:37.465Z,0
2016-11-07T03:16:51.038Z,0
2016-11-07T03:18:35.724Z,0
2016-11-07T03:19:49.413Z,0
2016-11-07T03:21:02.438Z,0
2016-11-07T03:22:16.054Z,0
2016-11-07T03:23:29.139Z,0
2016-11-07T03:24:42.758Z,0
2016-11-07T03:25:56.446Z,0
2016-11-07T03:27:10.074Z,0
2016-11-07T03:28:23.326Z,0
2016-11-07T03:29:36.352Z,0
2016-11-07T03:30:49.917Z,0
2016-11-07T03:32:03.559Z,0
2016-11-07T03:33:16.659Z,0
2016-11-07T03:34:30.307Z,0
2016-11-07T03:35:43.904Z,0
2016-11-07T03:36:57.575Z,0
2016-11-07T03:38:10.602Z,0
2016-11-07T03:39:22.568Z,0
2016-11-07T03:40:34.572Z,0
2016-11-07T03:41:47.848Z,0
2016-11-07T03:43:01.489Z,0
2016-11-07T03:44:14.015Z,0
2016-11-07T03:45:27.615Z,0
2016-11-07T03:46:41.125Z,0
2016-11-07T03:47:54.214Z,0
2016-11-07T03:49:07.745Z,0
2016-11-07T03:50:21.042Z,0
2016-11-07T03:51:34.640Z,0
2016-11-07T03:52:47.701Z,0
2016-11-07T03:54:01.036Z,0
2016-11-07T03:55:14.094Z,0
2016-11-07T03:56:27.461Z,0
2016-11-07T03:57:41.041Z,0
2016-11-07T03:58:54.096Z,0
2016-11-07T04:00:07.618Z,0
2016-11-07T04:01:20.725Z,0
2016-11-07T04:02:33.706Z,0
2016-11-07T04:03:46.731Z,0
2016-11-07T04:05:00.019Z,0
2016-11-07T04:06:13.674Z,0
2016-11-07T04:07:27.218Z,0
2016-11-07T04:08:40.763Z,0
2016-11-07T04:09:53.715Z,0
2016-11-07T04:11:06.810Z,0
2016-11-07T04:12:20.450Z,0
2016-11-07T04:13:33.490Z,0
2016-11-07T04:14:46.046Z,0
2016-11-07T04:15:59.096Z,0
2016-11-07T04:17:12.655Z,0
2016-11-07T04:18:26.411Z,0
2016-11-07T04:19:39.984Z,0
2016-11-07T04:20:53.592Z,0
2016-11-07T04:22:07.166Z,0
2016-11-07T04:23:20.732Z,0
2016-11-07T04:24:34.154Z,0
2016-11-07T04:25:47.521Z,0
2016-11-07T04:27:01.164Z,0
2016-11-07T04:28:14.724Z,0
2016-11-07T04:29:28.373Z,0
2016-11-07T04:30:42.067Z,0
2016-11-07T04:31:55.238Z,0
2016-11-07T04:33:07.813Z,0
2016-11-07T04:34:20.937Z,0
2016-11-07T04:35:34.555Z,0
2016-11-07T04:36:48.277Z,0
2016-11-07T04:38:01.890Z,0
2016-11-07T04:39:15.015Z,0
2016-11-07T04:40:27.595Z,0
2016-11-07T04:41:41.275Z,0
2016-11-07T04:42:54.898Z,0
2016-11-07T04:44:07.436Z,0
2016-11-07T04:45:20.559Z,0
2016-11-07T04:46:33.718Z,0
2016-11-07T04:47:47.391Z,0
2016-11-07T04:49:01.078Z,0
2016-11-07T04:50:14.621Z,0
2016-11-07T04:51:28.165Z,0
2016-11-07T04:52:41.836Z,0
2016-11-07T04:53:55.376Z,0
2016-11-07T04:55:09.006Z,0
2016-11-07T04:56:22.402Z,0
2016-11-07T04:57:36.009Z,0
2016-11-07T04:58:49.116Z,0
2016-11-07T05:00:02.771Z,0
2016-11-07T05:01:15.848Z,0
2016-11-07T05:02:29.614Z,0
2016-11-07T05:03:43.144Z,0
2016-11-07T05:04:56.753Z,0
2016-11-07T05:06:10.364Z,0
2016-11-07T05:07:23.457Z,0
2016-11-07T05:08:37.036Z,0
2016-11-07T05:09:50.621Z,0
2016-11-07T05:11:04.164Z,0
2016-11-07T05:12:48.325Z,0
2016-11-07T05:14:01.609Z,0
2016-11-07T05:15:15.248Z,0
2016-11-07T05:16:28.981Z,0
2016-11-07T05:17:42.058Z,0
2016-11-07T05:18:55.676Z,0
2016-11-07T05:20:08.783Z,0
2016-11-07T05:21:22.307Z,0
2016-11-07T05:22:35.070Z,0
2016-11-07T05:23:48.708Z,0
2016-11-07T05:25:02.329Z,0
2016-11-07T05:26:15.976Z,0
2016-11-07T05:27:29.671Z,0
2016-11-07T05:28:42.752Z,0
2016-11-07T05:29:56.729Z,0
2016-11-07T05:31:10.337Z,0
2016-11-07T05:32:23.785Z,0
2016-11-07T05:33:36.777Z,0
2016-11-07T05:34:50.387Z,0
2016-11-07T05:36:04.038Z,0
2016-11-07T05:37:17.640Z,0
2016-11-07T05:38:31.240Z,0
2016-11-07T05:39:44.828Z,0
2016-11-07T05:40:58.352Z,0
2016-11-07T05:42:11.926Z,0
2016-11-07T05:43:25.558Z,0
2016-11-07T05:44:39.153Z,0
2016-11-07T05:45:52.841Z,0
2016-11-07T05:47:06.431Z,0
2016-11-07T05:48:20.333Z,0
2016-11-07T05:49:33.384Z,0
2016-11-07T05:50:47.060Z,0
2016-11-07T05:52:00.643Z,0
2016-11-07T05:53:14.320Z,0
2016-11-07T05:54:27.949Z,0
2016-11-07T05:55:41.630Z,0
2016-11-07T05:56:54.828Z,0
2016-11-07T05:58:07.335Z,0
2016-11-07T05:59:20.523Z,0
2016-11-07T06:00:33.261Z,0
2016-11-07T06:01:46.855Z,0
2016-11-07T06:02:59.931Z,0
2016-11-07T06:04:13.087Z,0
2016-11-07T06:05:26.789Z,0
2016-11-07T06:06:39.312Z,0
2016-11-07T06:07:52.844Z,0
2016-11-07T06:09:06.510Z,0
2016-11-07T06:10:20.270Z,0
2016-11-07T06:11:33.753Z,0
2016-11-07T06:12:47.396Z,0
2016-11-07T06:14:00.995Z,0
2016-11-07T06:15:14.603Z,0
2016-11-07T06:16:27.741Z,0
2016-11-07T06:17:40.779Z,0
2016-11-07T06:18:54.396Z,0
2016-11-07T06:20:07.978Z,0
2016-11-07T06:21:21.578Z,0
2016-11-07T06:22:34.680Z,0
2016-11-07T06:23:47.742Z,0
2016-11-07T06:25:01.138Z,0
2016-11-07T06:26:14.247Z,0
2016-11-07T06:27:27.835Z,0
2016-11-07T06:28:41.446Z,0
2016-11-07T06:29:54.626Z,0
2016-11-07T06:31:08.232Z,0
2016-11-07T06:32:21.843Z,0
2016-11-07T06:33:34.430Z,0
2016-11-07T06:34:48.186Z,0
2016-11-07T06:36:01.972Z,0
2016-11-07T06:37:15.591Z,0
2016-11-07T06:38:28.613Z,0
2016-11-07T06:39:41.667Z,0
2016-11-07T06:40:55.251Z,0
2016-11-07T06:42:08.322Z,0
2016-11-07T06:43:35.593Z,0
2016-11-07T06:44:49.311Z,0
2016-11-07T06:46:02.332Z,0
2016-11-07T06:47:15.943Z,0
2016-11-07T06:48:29.327Z,0
2016-11-07T06:49:42.179Z,0
2016-11-07T06:50:55.825Z,0
2016-11-07T06:52:09.523Z,0
2016-11-07T06:53:22.602Z,0
2016-11-07T06:54:36.257Z,0
2016-11-07T06:55:49.413Z,0
2016-11-07T06:57:03.061Z,0
2016-11-07T06:58:16.697Z,0
2016-11-07T06:59:29.994Z,0
2016-11-07T07:00:42.080Z,0
2016-11-07T07:01:55.667Z,0
2016-11-07T07:03:09.034Z,0
2016-11-07T07:04:22.612Z,0
2016-11-07T07:05:36.141Z,0
2016-11-07T07:06:49.701Z,0
2016-11-07T07:08:03.040Z,0
2016-11-07T07:09:16.079Z,0
2016-11-07T07:10:29.339Z,0
2016-11-07T07:11:42.891Z,0
2016-11-07T07:12:56.717Z,0
2016-11-07T07:14:10.388Z,0
2016-11-07T07:15:23.742Z,0
2016-11-07T07:16:36.309Z,0
2016-11-07T07:17:48.813Z,0
2016-11-07T07:19:01.833Z,0
2016-11-07T07:20:15.465Z,0
2016-11-07T07:21:28.448Z,0
2016-11-07T07:22:42.004Z,0
2016-11-07T07:23:55.540Z,0
2016-11-07T07:25:09.178Z,0
2016-11-07T07:26:22.798Z,0
2016-11-07T07:27:36.429Z,0
2016-11-07T07:28:49.952Z,0
2016-11-07T07:30:03.608Z,0
2016-11-07T07:31:17.376Z,0
2016-11-07T07:32:30.477Z,0
2016-11-07T07:33:43.545Z,0
2016-11-07T07:34:57.222Z,0
2016-11-07T07:36:10.323Z,0
2016-11-07T07:37:23.635Z,0
2016-11-07T07:38:37.244Z,0
2016-11-07T07:39:51.006Z,0
2016-11-07T07:41:04.100Z,0
2016-11-07T07:42:17.832Z,0
2016-11-07T07:43:30.962Z,0
2016-11-07T07:44:44.627Z,0
2016-11-07T07:45:57.941Z,0
2016-11-07T07:47:11.076Z,0
2016-11-07T07:48:24.655Z,0
2016-11-07T07:49:38.235Z,0
2016-11-07T07:50:51.347Z,0
2016-11-07T07:52:04.935Z,0
2016-11-07T07:53:17.993Z,0
2016-11-07T07:54:31.033Z,0
2016-11-07T07:55:43.807Z,0
2016-11-07T07:56:57.473Z,0
2016-11-07T07:58:11.120Z,0
2016-11-07T07:59:24.838Z,0
2016-11-07T08:00:37.953Z,0
2016-11-07T08:01:51.020Z,0
2016-11-07T08:03:04.593Z,0
2016-11-07T08:04:18.260Z,0
2016-11-07T08:05:31.869Z,0
2016-11-07T08:06:43.939Z,0
2016-11-07T08:07:56.986Z,0
2016-11-07T08:09:10.069Z,0
2016-11-07T08:10:22.618Z,0
2016-11-07T08:11:36.172Z,0
2016-11-07T08:12:49.899Z,0
2016-11-07T08:14:03.530Z,0
2016-11-07T08:15:16.404Z,0
2016-11-07T08:16:30.018Z,0
2016-11-07T08:17:42.516Z,0
2016-11-07T08:18:56.112Z,0
2016-11-07T08:20:09.711Z,0
2016-11-07T08:21:22.232Z,0
2016-11-07T08:23:06.453Z,0
2016-11-07T08:24:20.083Z,0
2016-11-07T08:25:32.037Z,0
2016-11-07T08:26:45.628Z,0
2016-11-07T08:27:59.245Z,0
2016-11-07T08:29:12.842Z,0
2016-11-07T08:30:26.443Z,0
2016-11-07T08:31:39.790Z,0
2016-11-07T08:32:53.770Z,0
2016-11-07T08:34:07.397Z,0
2016-11-07T08:35:20.618Z,0
2016-11-07T08:36:34.216Z,0
2016-11-07T08:37:47.827Z,0
2016-11-07T08:39:00.875Z,0
2016-11-07T08:40:14.506Z,0
2016-11-07T08:41:28.124Z,0
2016-11-07T08:42:41.744Z,0
2016-11-07T08:43:54.914Z,5
2016-11-07T08:45:08.520Z,5
2016-11-07T08:46:21.529Z,5
2016-11-07T08:47:35.138Z,5
2016-11-07T08:48:48.767Z,5
2016-11-07T08:50:02.400Z,5
2016-11-07T08:51:15.391Z,5
2016-11-07T08:52:28.476Z,5
2016-11-07T08:53:42.065Z,5
2016-11-07T08:54:55.726Z,5
2016-11-07T08:56:08.769Z,5
2016-11-07T08:57:21.313Z,5
2016-11-07T08:58:34.962Z,5
2016-11-07T08:59:48.618Z,5
2016-11-07T09:01:02.276Z,5
2016-11-07T09:02:15.630Z,5
2016-11-07T09:03:29.349Z,5
2016-11-07T09:04:43.070Z,5
2016-11-07T09:05:56.177Z,5
2016-11-07T09:07:09.233Z,5
2016-11-07T09:08:22.360Z,10
2016-11-07T09:09:35.531Z,10
2016-11-07T09:10:48.402Z,10
2016-11-07T09:12:02.118Z,10
2016-11-07T09:13:15.731Z,10
2016-11-07T09:14:28.815Z,10
2016-11-07T09:15:42.427Z,10
2016-11-07T09:16:56.112Z,10
2016-11-07T09:18:09.762Z,10
2016-11-07T09:19:22.822Z,15
2016-11-07T09:20:36.344Z,10
2016-11-07T09:21:49.913Z,10
2016-11-07T09:23:03.591Z,15
2016-11-07T09:24:17.193Z,10
2016-11-07T09:25:30.291Z,15
2016-11-07T09:26:43.912Z,15
2016-11-07T09:27:56.986Z,15
2016-11-07T09:29:09.542Z,15
2016-11-07T09:30:22.684Z,15
2016-11-07T09:31:36.266Z,15
2016-11-07T09:32:49.841Z,15
2016-11-07T09:34:02.861Z,15
2016-11-07T09:35:16.446Z,15
2016-11-07T09:36:30.033Z,15
2016-11-07T09:37:43.621Z,15
2016-11-07T09:38:57.321Z,15
2016-11-07T09:40:10.801Z,20
2016-11-07T09:41:23.868Z,20
2016-11-07T09:42:37.503Z,20
2016-11-07T09:43:50.580Z,20
2016-11-07T09:45:04.170Z,20
2016-11-07T09:46:17.763Z,20
2016-11-07T09:47:31.360Z,15
2016-11-07T09:48:44.418Z,15
2016-11-07T09:49:57.526Z,15
2016-11-07T09:51:11.332Z,20
2016-11-07T09:52:24.399Z,15
2016-11-07T09:53:37.920Z,20
2016-11-07T09:54:51.334Z,20
2016-11-07T09:56:04.946Z,20
2016-11-07T09:57:18.567Z,20
2016-11-07T09:58:32.224Z,20
2016-11-07T09:59:45.837Z,20
2016-11-07T10:00:59.494Z,20
2016-11-07T10:02:12.552Z,15
2016-11-07T10:03:26.144Z,15
2016-11-07T10:04:39.798Z,15
2016-11-07T10:05:53.631Z,15
2016-11-07T10:07:07.168Z,15
2016-11-07T10:08:19.746Z,15
2016-11-07T10:09:32.962Z,15
2016-11-07T10:10:45.990Z,20
2016-11-07T10:11:59.876Z,20
2016-11-07T10:13:12.864Z,25
2016-11-07T10:14:24.890Z,30
2016-11-07T10:15:38.575Z,30
2016-11-07T10:16:51.637Z,25
2016-11-07T10:18:05.299Z,30
2016-11-07T10:19:18.885Z,30
2016-11-07T10:20:31.461Z,30
2016-11-07T10:21:45.092Z,35
2016-11-07T10:22:58.692Z,35
2016-11-07T10:24:12.349Z,35
2016-11-07T10:25:26.000Z,35
2016-11-07T10:26:39.542Z,40
2016-11-07T10:27:52.897Z,35
2016-11-07T10:29:06.679Z,30
2016-11-07T10:30:19.220Z,30
2016-11-07T10:31:33.019Z,30
2016-11-07T10:32:46.677Z,30
2016-11-07T10:34:00.289Z,30
2016-11-07T10:35:13.341Z,30
2016-11-07T10:36:25.931Z,25
2016-11-07T10:37:39.562Z,25
2016-11-07T10:38:53.139Z,25
2016-11-07T10:40:06.218Z,25
2016-11-07T10:41:19.912Z,25
2016-11-07T10:42:32.923Z,30
2016-11-07T10:43:46.514Z,30
2016-11-07T10:45:00.113Z,30
2016-11-07T10:46:13.745Z,25
2016-11-07T10:47:27.368Z,25
2016-11-07T10:48:40.945Z,25
2016-11-07T10:49:54.090Z,25
2016-11-07T10:51:06.729Z,25
2016-11-07T10:52:19.865Z,25
2016-11-07T10:53:32.478Z,25
2016-11-07T10:54:45.557Z,25
2016-11-07T10:55:57.843Z,25
2016-11-07T10:57:11.437Z,25
2016-11-07T10:58:24.527Z,20
2016-11-07T10:59:37.293Z,20
2016-11-07T11:00:50.083Z,20
2016-11-07T11:02:03.750Z,20
2016-11-07T11:03:17.528Z,20
2016-11-07T11:04:31.116Z,20
2016-11-07T11:05:44.711Z,25
2016-11-07T11:06:58.609Z,25
2016-11-07T11:08:12.237Z,25
2016-11-07T11:09:25.285Z,25
2016-11-07T11:10:38.842Z,25
2016-11-07T11:11:52.504Z,25
2016-11-07T11:13:05.983Z,25
2016-11-07T11:14:19.587Z,25
2016-11-07T11:15:32.651Z,25
2016-11-07T11:16:45.779Z,25
2016-11-07T11:17:58.850Z,25
2016-11-07T11:19:11.888Z,25
2016-11-07T11:20:25.485Z,25
2016-11-07T11:21:39.193Z,25
2016-11-07T11:22:52.264Z,25
2016-11-07T11:24:05.344Z,25
2016-11-07T11:25:18.673Z,25
2016-11-07T11:26:31.255Z,25
2016-11-07T11:27:44.822Z,25
2016-11-07T11:28:58.493Z,20
2016-11-07T11:30:12.091Z,20
2016-11-07T11:31:24.667Z,20
2016-11-07T11:32:38.217Z,25
2016-11-07T11:33:50.754Z,25
2016-11-07T11:35:03.785Z,25
2016-11-07T11:36:17.615Z,25
2016-11-07T11:37:31.238Z,25
2016-11-07T11:38:44.838Z,25
2016-11-07T11:39:57.901Z,25
2016-11-07T11:42:55.655Z,30
2016-11-07T11:44:08.702Z,25
2016-11-07T11:45:22.457Z,30
2016-11-07T11:46:36.120Z,30
2016-11-07T11:47:49.177Z,30
2016-11-07T11:49:02.957Z,30
2016-11-07T11:50:16.531Z,30
2016-11-07T11:51:30.181Z,30
2016-11-07T11:52:43.550Z,30
2016-11-07T11:53:57.127Z,30
2016-11-07T11:55:10.491Z,30
2016-11-07T11:56:24.079Z,30
2016-11-07T11:57:37.116Z,30
2016-11-07T11:58:50.198Z,25
2016-11-07T12:00:03.816Z,25
2016-11-07T12:01:17.542Z,25
2016-11-07T12:02:31.243Z,25
2016-11-07T12:03:44.325Z,25
2016-11-07T12:04:57.999Z,25
2016-11-07T12:06:11.604Z,25
2016-11-07T12:07:25.210Z,30
2016-11-07T12:08:38.270Z,30
2016-11-07T12:09:51.854Z,30
2016-11-07T12:11:05.448Z,30
2016-11-07T12:12:50.146Z,30
2016-11-07T12:14:03.219Z,30
2016-11-07T12:15:16.405Z,30
2016-11-07T12:16:30.030Z,30
2016-11-07T12:17:43.667Z,30
2016-11-07T12:18:56.824Z,35
2016-11-07T12:20:10.462Z,35
2016-11-07T12:21:24.064Z,35
2016-11-07T12:22:37.665Z,35
2016-11-07T12:23:51.273Z,40
2016-11-07T12:25:04.418Z,35
2016-11-07T12:26:17.192Z,35
2016-11-07T12:27:30.763Z,40
2016-11-07T12:28:43.901Z,40
2016-11-07T12:29:57.518Z,45
2016-11-07T12:31:11.147Z,45
2016-11-07T12:34:09.003Z,45
2016-11-07T12:35:22.679Z,50
2016-11-07T12:36:35.804Z,50
2016-11-07T12:37:49.416Z,55
2016-11-07T12:39:02.476Z,45
2016-11-07T12:40:16.076Z,45
2016-11-07T12:41:29.953Z,55
2016-11-07T12:42:43.367Z,80
2016-11-07T12:43:56.962Z,75
2016-11-07T12:45:10.073Z,80
2016-11-07T12:46:23.749Z,85
2016-11-07T12:47:36.777Z,95
2016-11-07T12:48:50.646Z,105
2016-11-07T12:50:04.243Z,115
2016-11-07T12:51:16.977Z,120
2016-11-07T12:52:30.629Z,125
2016-11-07T12:53:44.259Z,135
2016-11-07T12:54:56.844Z,140
2016-11-07T12:56:10.463Z,150
2016-11-07T12:57:24.043Z,155
2016-11-07T12:58:37.066Z,155
2016-11-07T12:59:50.672Z,155
2016-11-07T13:01:04.369Z,155
2016-11-07T13:02:17.165Z,160
2016-11-07T13:03:30.763Z,160
2016-11-07T13:04:44.371Z,160
2016-11-07T13:05:57.769Z,160
2016-11-07T13:07:11.455Z,160
2016-11-07T13:08:25.061Z,160
2016-11-07T13:09:38.607Z,165
2016-11-07T13:10:52.157Z,165
2016-11-07T13:12:05.732Z,170
2016-11-07T13:13:19.411Z,170
2016-11-07T13:14:32.539Z,170
2016-11-07T13:15:46.255Z,175
2016-11-07T13:17:00.038Z,170
2016-11-07T13:18:13.123Z,170
2016-11-07T13:19:26.878Z,175
2016-11-07T13:20:40.562Z,180
2016-11-07T13:21:53.790Z,180
2016-11-07T13:23:06.881Z,185
2016-11-07T13:24:20.014Z,190
2016-11-07T13:25:33.656Z,190
2016-11-07T13:26:47.265Z,190
2016-11-07T13:28:00.632Z,190
2016-11-07T13:29:13.193Z,195
2016-11-07T13:30:26.921Z,200
2016-11-07T13:31:40.318Z,205
2016-11-07T13:32:53.855Z,210
2016-11-07T13:34:07.416Z,210
2016-11-07T13:35:21.058Z,215
2016-11-07T13:36:34.631Z,215
2016-11-07T13:37:48.279Z,215
2016-11-07T13:39:01.386Z,220
2016-11-07T13:40:15.012Z,220
2016-11-07T13:41:28.592Z,220
2016-11-07T13:42:42.220Z,220
2016-11-07T13:43:55.885Z,220
2016-11-07T13:45:09.540Z,220
2016-11-07T13:46:23.203Z,225
2016-11-07T13:47:36.776Z,225
2016-11-07T13:48:49.310Z,230
2016-11-07T13:50:02.536Z,230
2016-11-07T13:51:15.648Z,235
2016-11-07T13:52:29.261Z,240
2016-11-07T13:53:42.862Z,245
2016-11-07T13:54:56.406Z,250
2016-11-07T13:56:10.052Z,265
2016-11-07T13:57:23.110Z,265
2016-11-07T13:58:36.654Z,265
2016-11-07T13:59:50.285Z,255
2016-11-07T14:01:03.607Z,260
2016-11-07T14:02:16.997Z,260
2016-11-07T14:03:30.133Z,260
2016-11-07T14:04:43.744Z,265
2016-11-07T14:05:56.868Z,270
2016-11-07T14:07:09.391Z,270
2016-11-07T14:08:22.223Z,270
2016-11-07T14:09:35.299Z,170
2016-11-07T14:10:48.913Z,275
2016-11-07T14:12:02.085Z,280
2016-11-07T14:13:15.814Z,295
2016-11-07T14:14:29.399Z,300
2016-11-07T14:15:43.098Z,120
2016-11-07T14:16:56.896Z,305
2016-11-07T14:18:10.511Z,310
2016-11-07T14:19:24.201Z,125
2016-11-07T14:20:37.809Z,55
2016-11-07T14:21:51.333Z,60
2016-11-07T14:23:04.982Z,320
2016-11-07T14:24:18.588Z,120
2016-11-07T14:25:31.256Z,70
2016-11-07T14:26:44.914Z,65
2016-11-07T14:27:57.990Z,75
2016-11-07T14:29:11.348Z,330
2016-11-07T14:30:24.986Z,65
2016-11-07T14:31:38.578Z,345
2016-11-07T14:32:52.166Z,85
2016-11-07T14:34:04.712Z,80
2016-11-07T14:35:17.231Z,350
2016-11-07T14:36:30.888Z,350
2016-11-07T14:37:43.397Z,360
2016-11-07T14:38:56.990Z,210
2016-11-07T14:40:10.063Z,370
2016-11-07T14:41:22.612Z,370
2016-11-07T14:42:36.213Z,115
2016-11-07T14:43:49.305Z,365
2016-11-07T14:45:02.733Z,210
2016-11-07T14:46:16.454Z,115
2016-11-07T14:47:30.139Z,105
2016-11-07T14:48:43.198Z,360
2016-11-07T14:49:57.003Z,360
2016-11-07T14:51:10.122Z,370
2016-11-07T14:52:23.269Z,360
2016-11-07T14:53:36.888Z,360
2016-11-07T14:54:49.483Z,365
2016-11-07T14:56:02.577Z,370
2016-11-07T14:57:15.953Z,370
2016-11-07T14:58:29.618Z,365
2016-11-07T14:59:41.885Z,360
2016-11-07T15:00:55.503Z,135
2016-11-07T15:02:09.128Z,55
2016-11-07T15:03:22.793Z,60
2016-11-07T15:04:36.465Z,70
2016-11-07T15:05:49.790Z,50
2016-11-07T15:07:02.855Z,55
2016-11-07T15:08:16.555Z,60
2016-11-07T15:09:30.319Z,90
2016-11-07T15:10:44.032Z,345
2016-11-07T15:11:57.734Z,385
2016-11-07T15:13:10.844Z,390
2016-11-07T15:14:24.615Z,380
2016-11-07T15:15:38.208Z,365
2016-11-07T15:16:51.802Z,370
2016-11-07T15:18:05.392Z,380
2016-11-07T15:19:18.972Z,380
2016-11-07T15:20:32.552Z,370
2016-11-07T15:21:46.211Z,380
2016-11-07T15:23:00.085Z,375
2016-11-07T15:24:13.770Z,380
2016-11-07T15:25:27.178Z,385
2016-11-07T15:26:40.245Z,385
2016-11-07T15:27:53.976Z,380
2016-11-07T15:29:07.080Z,365
2016-11-07T15:30:20.819Z,375
2016-11-07T15:31:33.387Z,375
2016-11-07T15:32:47.135Z,380
2016-11-07T15:34:00.723Z,375
2016-11-07T15:35:14.147Z,375
2016-11-07T15:36:27.484Z,380
2016-11-07T15:37:41.052Z,380
2016-11-07T15:38:54.761Z,380
2016-11-07T15:40:08.834Z,385
2016-11-07T15:41:22.427Z,390
2016-11-07T15:42:35.501Z,385
2016-11-07T15:44:19.125Z,385
2016-11-07T15:45:32.766Z,380
2016-11-07T15:46:46.459Z,375
2016-11-07T15:47:59.650Z,380
2016-11-07T15:49:13.276Z,385
2016-11-07T15:50:27.063Z,390
2016-11-07T15:51:40.143Z,385
2016-11-07T15:52:53.248Z,380
2016-11-07T15:54:06.967Z,385
2016-11-07T15:55:20.056Z,385
2016-11-07T15:56:33.693Z,380
2016-11-07T15:57:47.331Z,390
2016-11-07T15:59:00.966Z,380
2016-11-07T16:00:14.096Z,380
2016-11-07T16:01:27.651Z,380
2016-11-07T16:02:41.217Z,380
2016-11-07T16:03:54.814Z,375
2016-11-07T16:05:07.945Z,380
2016-11-07T16:06:21.567Z,390
2016-11-07T16:07:35.217Z,360
2016-11-07T16:08:48.873Z,380
2016-11-07T16:10:02.452Z,380
2016-11-07T16:11:16.154Z,380
2016-11-07T16:12:30.067Z,375
2016-11-07T16:13:43.763Z,385
2016-11-07T16:14:56.488Z,385
2016-11-07T16:16:10.158Z,375
2016-11-07T16:17:23.531Z,375
2016-11-07T16:18:37.189Z,380
2016-11-07T16:19:50.876Z,380
2016-11-07T16:21:04.473Z,380
2016-11-07T16:22:18.159Z,385
2016-11-07T16:23:31.912Z,390
2016-11-07T16:24:45.543Z,395
2016-11-07T16:25:59.131Z,380
2016-11-07T16:27:12.801Z,385
2016-11-07T16:28:25.864Z,375
2016-11-07T16:29:38.971Z,65
2016-11-07T16:30:52.678Z,60
2016-11-07T16:32:06.288Z,65
2016-11-07T16:33:19.878Z,70
2016-11-07T16:34:33.530Z,70
2016-11-07T16:35:46.645Z,75
2016-11-07T16:37:00.195Z,80
2016-11-07T16:38:13.357Z,70
2016-11-07T16:39:26.637Z,110
2016-11-07T16:40:39.755Z,330
2016-11-07T16:41:53.356Z,70
2016-11-07T16:43:06.915Z,55
2016-11-07T16:44:20.024Z,50
2016-11-07T16:45:33.062Z,50
2016-11-07T16:46:46.534Z,50
2016-11-07T16:48:00.159Z,55
2016-11-07T16:49:13.708Z,65
2016-11-07T16:50:27.403Z,70
2016-11-07T16:51:40.469Z,65
2016-11-07T16:52:54.065Z,70
2016-11-07T16:54:07.734Z,90
2016-11-07T16:55:20.861Z,125
2016-11-07T16:56:33.954Z,265
2016-11-07T16:57:47.755Z,80
2016-11-07T16:59:01.373Z,105
2016-11-07T17:00:14.512Z,290
2016-11-07T17:01:27.645Z,80
2016-11-07T17:02:41.333Z,135
2016-11-07T17:03:54.979Z,85
2016-11-07T17:05:08.625Z,105
2016-11-07T17:06:22.276Z,210
2016-11-07T17:07:35.867Z,190
2016-11-07T17:08:48.417Z,295
2016-11-07T17:10:02.118Z,290
2016-11-07T17:11:14.930Z,285
2016-11-07T17:12:28.582Z,285
2016-11-07T17:13:41.675Z,115
2016-11-07T17:14:55.353Z,180
2016-11-07T17:16:08.965Z,270
2016-11-07T17:17:22.579Z,285
2016-11-07T17:18:35.665Z,265
2016-11-07T17:19:49.308Z,170
2016-11-07T17:21:02.099Z,75
2016-11-07T17:22:15.705Z,60
2016-11-07T17:23:29.062Z,60
2016-11-07T17:26:25.802Z,85
2016-11-07T17:27:38.833Z,65
2016-11-07T17:28:52.205Z,50
2016-11-07T17:30:05.873Z,30
2016-11-07T17:31:18.937Z,20
2016-11-07T17:32:32.493Z,10
2016-11-07T17:33:46.105Z,10
2016-11-07T17:34:59.749Z,10
2016-11-07T17:36:13.452Z,10
2016-11-07T17:37:27.169Z,10
2016-11-07T17:38:40.203Z,10
2016-11-07T17:39:52.761Z,15
2016-11-07T17:41:06.363Z,15
2016-11-07T17:42:19.993Z,15
2016-11-07T17:43:33.679Z,15
2016-11-07T17:44:47.205Z,10
2016-11-07T17:46:00.852Z,5
2016-11-07T17:47:14.462Z,5
2016-11-07T17:48:27.954Z,0